Time;durP1;ratioP1;P1;durP2;ratioP2;P2;SDS_P1;SDS_P2;PMS_P1;PMS_P2;Temp;Humidity;BMP_temperature;BMP_pressure;BME280_temperature;BME280_humidity;BME280_pressure;Samples;Min_cycle;Max_cycle;Signal;HPM_P1;HPM_P2
2022/06/11 00:01:06;;;;;;;35.63;27.27;;;;;;;19.60;80.23;100829.22;4994377;28;20501;-89
2022/06/11 00:03:31;;;;;;;39.58;31.60;;;;;;;19.44;80.43;100796.34;4977674;28;20022;-89
2022/06/11 00:05:57;;;;;;;30.23;24.75;;;;;;;19.51;80.44;100815.03;4993714;28;20070;-89
2022/06/11 00:08:22;;;;;;;25.80;21.73;;;;;;;19.59;80.91;100823.16;4993363;28;20030;-88
2022/06/11 00:10:48;;;;;;;26.70;20.05;;;;;;;19.64;80.23;100826.19;4993738;28;20025;-89
2022/06/11 00:13:13;;;;;;;22.88;18.00;;;;;;;19.59;80.38;100828.38;5010061;28;20053;-88
2022/06/11 00:15:39;;;;;;;20.05;15.60;;;;;;;19.59;80.60;100823.16;5009666;28;20049;-88
2022/06/11 00:18:05;;;;;;;21.60;15.57;;;;;;;19.59;80.67;100820.53;5009809;28;20033;-90
2022/06/11 00:20:30;;;;;;;22.33;15.60;;;;;;;19.53;80.55;100801.78;4993561;28;20041;-89
2022/06/11 00:22:56;;;;;;;17.88;15.07;;;;;;;19.57;80.38;100808.50;5009643;28;20064;-88
2022/06/11 00:25:21;;;;;;;20.05;15.13;;;;;;;19.58;80.23;100799.66;5026328;28;20026;-89
2022/06/11 00:27:47;;;;;;;23.92;17.85;;;;;;;19.59;80.05;100810.03;4993299;28;20384;-88
2022/06/11 00:30:13;;;;;;;28.05;19.10;;;;;;;19.55;79.65;100795.44;4977308;28;20537;-89
2022/06/11 00:32:39;;;;;;;24.40;20.35;;;;;;;19.55;79.79;100800.69;4994344;28;20022;-88
2022/06/11 00:35:05;;;;;;;24.13;19.88;;;;;;;19.59;79.89;100802.16;4997558;28;20022;-89
2022/06/11 00:37:31;;;;;;;26.50;20.33;;;;;;;19.61;79.87;100802.03;5013189;28;20084;-89
2022/06/11 00:39:56;;;;;;;28.55;21.92;;;;;;;19.63;79.67;100803.53;4997424;28;20026;-88
2022/06/11 00:42:24;;;;;;;32.20;23.77;;;;;;;19.60;79.40;100798.56;4997451;28;20465;-89
2022/06/11 00:45:29;;;;;;;32.90;25.42;;;;;;;19.53;79.82;100801.78;4997551;28;20026;-89
2022/06/11 00:47:59;;;;;;;34.13;27.40;;;;;;;19.50;79.91;100784.53;4983622;28;20053;-88
2022/06/11 00:50:27;;;;;;;34.38;26.70;;;;;;;19.55;79.70;100800.69;4997159;28;20026;-89
2022/06/11 00:52:53;;;;;;;33.33;27.35;;;;;;;19.37;80.28;100770.75;4996682;28;20124;-89
2022/06/11 00:55:34;;;;;;;34.70;28.75;;;;;;;19.49;80.38;100802.06;4980812;28;20038;-88
2022/06/11 00:58:19;;;;;;;34.15;28.48;;;;;;;19.51;80.51;100791.44;4997348;28;20902;-89
2022/06/11 01:00:48;;;;;;;37.55;30.23;;;;;;;19.43;80.11;100788.59;5012403;28;20467;-89
2022/06/11 01:03:17;;;;;;;41.55;32.13;;;;;;;19.52;80.25;100806.22;4997441;28;20065;-89
2022/06/11 01:05:45;;;;;;;38.55;31.90;;;;;;;19.43;79.75;100796.47;4996725;28;20048;-88
2022/06/11 01:08:44;;;;;;;44.38;33.33;;;;;;;19.48;79.78;100796.94;4980830;28;20029;-88
2022/06/11 01:11:42;;;;;;;39.22;31.95;;;;;;;19.49;79.63;100801.22;5012954;28;20029;-88
2022/06/11 01:14:21;;;;;;;38.05;30.08;;;;;;;19.31;79.48;100787.84;5013083;28;20042;-89
2022/06/11 01:16:52;;;;;;;30.75;27.23;;;;;;;19.44;79.85;100819.97;4996127;28;20404;-88
2022/06/11 01:19:49;;;;;;;26.63;17.93;;;;;;;19.43;79.00;100822.72;5012879;28;20046;-88
2022/06/11 01:22:17;;;;;;;20.55;15.95;;;;;;;19.44;79.15;100824.38;5013745;28;20025;-88
2022/06/11 01:24:55;;;;;;;21.17;15.07;;;;;;;19.20;79.13;100791.34;5012817;28;20026;-89
2022/06/11 01:27:39;;;;;;;16.02;12.50;;;;;;;19.41;79.35;100827.25;4996852;28;20403;-88
2022/06/11 01:30:10;;;;;;;14.48;12.20;;;;;;;19.44;79.35;100829.63;5014057;28;20036;-89
2022/06/11 01:32:45;;;;;;;15.85;12.13;;;;;;;19.42;79.44;100835.00;4980339;28;20509;-88
2022/06/11 01:35:18;;;;;;;15.68;11.52;;;;;;;19.39;79.39;100827.38;5012203;28;20022;-89
2022/06/11 01:37:57;;;;;;;13.27;10.90;;;;;;;19.41;78.63;100841.22;5012607;28;20030;-89
2022/06/11 01:40:48;;;;;;;12.40;10.38;;;;;;;19.50;78.61;100837.00;5013604;28;20033;-88
2022/06/11 01:43:36;;;;;;;15.57;10.70;;;;;;;19.40;78.73;100833.47;4996144;28;20542;-89
2022/06/11 01:46:05;;;;;;;12.38;10.38;;;;;;;19.37;79.16;100837.19;4997407;28;20034;-88
2022/06/11 01:48:30;;;;;;;14.18;10.60;;;;;;;19.40;79.00;100843.97;4996361;28;20490;-89
2022/06/11 01:51:12;;;;;;;16.27;10.70;;;;;;;19.25;79.09;100818.97;4995821;28;20101;-89
2022/06/11 01:53:49;;;;;;;12.85;9.85;;;;;;;19.16;78.93;100815.31;4997359;28;20030;-88
2022/06/11 01:56:33;;;;;;;11.90;10.23;;;;;;;19.33;79.24;100848.03;5012092;28;20514;-88
2022/06/11 01:59:08;;;;;;;13.20;9.55;;;;;;;19.35;78.51;100839.06;5013495;28;20113;-89
2022/06/11 02:01:50;;;;;;;11.82;9.88;;;;;;;19.28;78.14;100829.25;4996516;28;20189;-88
2022/06/11 02:04:22;;;;;;;14.20;9.93;;;;;;;19.31;78.35;100834.22;4981035;28;20026;-89
2022/06/11 02:07:13;;;;;;;14.68;10.27;;;;;;;19.25;78.46;100832.09;5013332;28;20080;-88
2022/06/11 02:09:44;;;;;;;13.68;9.95;;;;;;;19.16;78.73;100824.03;5012461;28;20495;-88
2022/06/11 02:12:30;;;;;;;13.93;10.05;;;;;;;19.16;78.97;100825.81;4996003;28;20026;-87
2022/06/11 02:15:11;;;;;;;13.27;10.40;;;;;;;19.26;79.06;100828.50;5012200;28;20080;-88
2022/06/11 02:17:39;;;;;;;14.50;9.90;;;;;;;19.12;79.01;100820.00;4979820;28;20042;-88
2022/06/11 02:20:14;;;;;;;12.40;9.88;;;;;;;19.22;78.29;100824.50;4995401;28;20033;-88
2022/06/11 02:22:58;;;;;;;13.93;9.85;;;;;;;19.17;78.20;100820.47;4979523;28;20124;-88
2022/06/11 02:25:30;;;;;;;12.25;9.93;;;;;;;19.10;78.36;100824.53;4996130;28;20030;-87
2022/06/11 02:27:58;;;;;;;13.03;9.80;;;;;;;19.18;78.82;100840.47;4995636;28;20022;-88
2022/06/11 02:30:25;;;;;;;11.63;10.23;;;;;;;19.16;78.82;100837.13;4979227;28;20065;-88
2022/06/11 02:32:51;;;;;;;12.75;9.85;;;;;;;19.21;78.70;100844.63;4994879;28;20512;-88
2022/06/11 02:35:39;;;;;;;10.55;9.32;;;;;;;19.22;77.93;100840.22;5011509;28;20036;-88
2022/06/11 02:38:08;;;;;;;14.93;9.68;;;;;;;19.15;78.02;100834.63;5011377;28;20427;-88
2022/06/11 02:40:37;;;;;;;11.80;9.13;;;;;;;19.20;78.18;100843.81;5011513;28;20017;-89
2022/06/11 02:43:03;;;;;;;12.73;9.43;;;;;;;19.18;77.43;100845.72;4995444;28;20026;-89
2022/06/11 02:45:28;;;;;;;11.23;9.35;;;;;;;19.21;77.86;100842.00;4994806;28;20037;-88
2022/06/11 02:47:54;;;;;;;14.45;9.77;;;;;;;19.11;77.91;100839.31;4994624;28;20104;-88
2022/06/11 02:50:25;;;;;;;13.95;9.90;;;;;;;19.15;77.80;100847.75;5011538;28;20049;-88
2022/06/11 02:52:51;;;;;;;13.88;9.65;;;;;;;19.22;77.73;100861.19;4979246;28;20029;-88
2022/06/11 02:55:17;;;;;;;13.38;9.68;;;;;;;19.13;77.40;100852.28;5010885;28;20030;-88
2022/06/11 02:57:43;;;;;;;12.82;9.30;;;;;;;19.10;77.13;100845.50;5010344;28;20022;-88
2022/06/11 03:00:10;;;;;;;13.30;9.48;;;;;;;19.07;77.01;100848.38;4994813;28;20057;-88
2022/06/11 03:02:35;;;;;;;10.90;8.77;;;;;;;19.13;76.78;100868.84;4994672;28;20041;-88
2022/06/11 03:05:01;;;;;;;10.65;8.93;;;;;;;19.11;77.07;100870.78;4978538;28;20022;-88
2022/06/11 03:07:26;;;;;;;10.77;9.25;;;;;;;18.82;77.21;100830.34;4994635;28;20029;-88
2022/06/11 03:09:52;;;;;;;13.20;9.38;;;;;;;19.04;77.40;100872.22;5010925;28;20107;-88
2022/06/11 03:12:17;;;;;;;12.73;8.82;;;;;;;19.01;76.86;100859.38;4978302;28;20072;-88
2022/06/11 03:14:43;;;;;;;16.42;9.57;;;;;;;19.05;77.01;100868.63;4994278;28;20037;-88
2022/06/11 03:17:11;;;;;;;15.18;9.07;;;;;;;19.07;76.64;100869.34;4977738;28;20117;-87
2022/06/11 03:19:36;;;;;;;12.25;9.40;;;;;;;18.99;76.71;100856.03;5011165;28;20026;-88
2022/06/11 03:22:02;;;;;;;16.20;9.75;;;;;;;19.03;76.61;100873.19;4994408;28;20557;-88
2022/06/11 03:24:27;;;;;;;15.10;9.82;;;;;;;19.07;76.39;100871.13;4994263;28;20056;-88
2022/06/11 03:26:53;;;;;;;19.13;9.52;;;;;;;18.96;76.34;100851.03;5027135;28;20076;-88
2022/06/11 03:29:20;;;;;;;15.88;9.77;;;;;;;19.10;76.19;100860.41;5010336;28;20159;-87
2022/06/11 03:31:45;;;;;;;17.08;9.68;;;;;;;19.12;76.77;100861.94;4993866;28;20083;-88
2022/06/11 03:34:11;;;;;;;15.20;10.13;;;;;;;19.11;76.85;100862.91;4994107;28;20022;-87
2022/06/11 03:36:37;;;;;;;12.05;10.13;;;;;;;19.14;76.64;100861.81;4977791;28;20034;-88
2022/06/11 03:39:03;;;;;;;13.85;9.68;;;;;;;19.09;76.29;100858.75;5010262;28;20549;-88
2022/06/11 03:41:28;;;;;;;14.48;10.13;;;;;;;19.12;75.92;100868.97;4977946;28;20117;-87
2022/06/11 03:43:54;;;;;;;15.00;10.10;;;;;;;19.15;76.10;100856.44;5010219;28;20411;-87
2022/06/11 03:46:19;;;;;;;11.98;9.40;;;;;;;19.22;76.06;100866.44;5010148;28;20080;-87
2022/06/11 03:48:45;;;;;;;15.05;9.88;;;;;;;19.23;76.17;100866.31;4993961;28;20059;-87
2022/06/11 03:51:11;;;;;;;13.07;9.70;;;;;;;19.16;75.26;100868.59;4993955;28;20033;-87
2022/06/11 03:53:37;;;;;;;14.63;9.63;;;;;;;19.25;75.65;100874.06;4977648;28;20105;-88
2022/06/11 03:56:03;;;;;;;11.55;10.00;;;;;;;19.13;75.75;100868.84;5009982;28;20034;-88
2022/06/11 03:58:29;;;;;;;18.67;9.73;;;;;;;19.20;75.36;100869.19;4977622;28;20030;-87
2022/06/11 04:03:39;;;;;;;13.90;10.05;;;;;;;19.16;75.91;100868.59;5010108;28;20040;-88
2022/06/11 04:06:04;;;;;;;17.80;10.30;;;;;;;19.25;75.66;100887.19;4993338;28;20022;-87
2022/06/11 04:08:30;;;;;;;13.10;9.82;;;;;;;19.27;75.19;100890.50;4993374;28;20029;-87
2022/06/11 04:10:59;;;;;;;14.07;10.00;;;;;;;19.25;75.51;100890.63;4977494;28;20026;-88
2022/06/11 04:13:25;;;;;;;13.63;10.02;;;;;;;19.25;75.43;100892.41;4993858;28;20060;-88
2022/06/11 04:15:51;;;;;;;17.50;10.35;;;;;;;19.17;76.01;100885.16;5009489;28;20046;-88
2022/06/11 04:18:24;;;;;;;19.15;10.75;;;;;;;19.25;76.24;100897.66;4993560;28;20053;-88
2022/06/11 04:20:49;;;;;;;16.13;10.82;;;;;;;19.23;75.97;100889.09;5011080;28;20557;-88
2022/06/11 04:23:15;;;;;;;14.35;10.00;;;;;;;19.19;74.92;100893.75;4993524;28;20037;-88
2022/06/11 04:25:40;;;;;;;15.95;10.25;;;;;;;19.28;74.89;100887.78;4993328;28;20034;-88
2022/06/11 04:28:06;;;;;;;15.80;10.35;;;;;;;19.31;75.09;100891.94;5009831;28;20479;-87
2022/06/11 04:30:31;;;;;;;11.43;9.75;;;;;;;19.34;74.61;100889.88;4993189;28;20033;-87
2022/06/11 04:32:57;;;;;;;18.48;10.02;;;;;;;19.38;74.17;100893.09;5009702;28;20499;-88
2022/06/11 04:35:22;;;;;;;12.45;9.75;;;;;;;19.45;74.36;100889.00;5009711;28;20037;-87
2022/06/11 04:37:48;;;;;;;12.63;10.05;;;;;;;19.39;74.59;100879.03;5026092;28;20029;-87
2022/06/11 04:40:16;;;;;;;14.68;10.05;;;;;;;19.42;74.97;100879.59;4993667;28;20038;-88
2022/06/11 04:42:41;;;;;;;13.48;10.63;;;;;;;19.40;74.57;100871.03;4993167;28;20057;-87
2022/06/11 04:45:07;;;;;;;15.23;11.10;;;;;;;19.48;74.30;100888.78;4993324;28;20030;-88
2022/06/11 04:47:33;;;;;;;14.85;10.93;;;;;;;19.49;74.41;100887.81;4993319;28;20018;-88
2022/06/11 04:49:59;;;;;;;15.38;11.00;;;;;;;19.53;74.15;100891.84;5009606;28;20479;-88
2022/06/11 04:52:25;;;;;;;16.60;10.57;;;;;;;19.54;74.21;100883.00;4977181;28;20032;-88
2022/06/11 04:54:51;;;;;;;15.70;10.70;;;;;;;19.60;74.22;100890.41;4993627;28;20033;-88
2022/06/11 04:57:17;;;;;;;16.25;10.48;;;;;;;19.52;73.75;100863.09;5009471;28;20033;-88
2022/06/11 04:59:42;;;;;;;17.55;10.18;;;;;;;19.51;73.39;100861.44;4992661;28;20113;-88
2022/06/11 05:02:08;;;;;;;13.63;10.15;;;;;;;19.70;73.48;100896.56;5010689;28;20030;-87
2022/06/11 05:04:33;;;;;;;21.35;10.63;;;;;;;19.79;73.78;100908.09;4992917;28;20030;-88
2022/06/11 05:06:59;;;;;;;17.58;11.48;;;;;;;19.85;73.35;100893.59;5025900;28;20076;-88
2022/06/11 05:09:25;;;;;;;14.40;10.30;;;;;;;19.71;73.60;100868.53;5009163;28;20029;-89
2022/06/11 05:11:50;;;;;;;15.90;10.50;;;;;;;19.88;73.43;100902.09;5009074;28;20030;-88
2022/06/11 05:14:16;;;;;;;15.35;10.90;;;;;;;19.90;73.14;100900.16;4976488;28;20054;-88
2022/06/11 05:16:43;;;;;;;15.48;11.05;;;;;;;19.91;73.17;100906.25;5009027;28;20100;-88
2022/06/11 05:19:09;;;;;;;13.68;10.80;;;;;;;19.97;72.70;100900.47;4993405;28;20481;-88
2022/06/11 05:21:35;;;;;;;13.00;10.77;;;;;;;20.04;73.36;100910.31;4996663;28;20105;-88
2022/06/11 05:24:00;;;;;;;13.63;10.57;;;;;;;19.99;72.70;100888.06;4996562;28;20045;-88
2022/06/11 05:26:43;;;;;;;13.80;10.68;;;;;;;19.91;72.48;100878.19;4996259;28;20030;-88
2022/06/11 05:29:10;;;;;;;15.75;11.02;;;;;;;20.05;71.72;100911.16;4998227;28;20515;-88
2022/06/11 05:31:35;;;;;;;15.10;10.55;;;;;;;20.10;72.16;100906.34;4980191;28;20034;-89
2022/06/11 05:34:01;;;;;;;12.90;9.90;;;;;;;20.08;72.29;100913.53;5012485;28;20040;-89
2022/06/11 05:36:26;;;;;;;17.95;11.35;;;;;;;20.08;72.26;100892.53;4980112;28;20033;-88
2022/06/11 05:38:52;;;;;;;17.52;11.70;;;;;;;20.10;72.39;100901.09;5029160;28;20030;-88
2022/06/11 05:41:17;;;;;;;15.55;10.90;;;;;;;20.17;72.48;100914.56;5012055;28;20029;-88
2022/06/11 05:43:44;;;;;;;13.13;10.82;;;;;;;20.20;71.42;100916.91;5012631;28;20475;-88
2022/06/11 05:46:12;;;;;;;16.95;11.50;;;;;;;20.27;71.55;100913.66;5012552;28;20022;-88
2022/06/11 05:48:41;;;;;;;19.45;10.85;;;;;;;20.23;72.11;100901.72;4996111;28;20057;-87
2022/06/11 05:51:07;;;;;;;19.00;11.27;;;;;;;20.34;72.12;100920.03;4980062;28;20025;-88
2022/06/11 05:53:34;;;;;;;19.38;11.40;;;;;;;20.39;71.25;100926.69;5012473;28;20033;-88
2022/06/11 05:56:00;;;;;;;14.40;11.00;;;;;;;20.39;71.64;100911.75;4995822;28;20571;-88
2022/06/11 05:58:31;;;;;;;16.10;11.07;;;;;;;20.41;71.74;100909.00;4995816;28;20112;-88
2022/06/11 06:00:57;;;;;;;19.60;11.88;;;;;;;20.55;72.05;100927.94;4996680;28;20037;-88
2022/06/11 06:03:23;;;;;;;17.98;11.82;;;;;;;20.52;71.28;100919.44;4979650;28;20026;-88
2022/06/11 06:05:48;;;;;;;19.35;12.30;;;;;;;20.62;71.41;100928.22;5012077;28;20128;-88
2022/06/11 06:08:14;;;;;;;16.45;11.35;;;;;;;20.59;70.81;100910.09;5011792;28;20112;-88
2022/06/11 06:10:39;;;;;;;16.05;12.32;;;;;;;20.80;71.50;100934.50;5012941;28;20037;-87
2022/06/11 06:13:45;;;;;;;17.98;11.52;;;;;;;20.75;71.47;100928.81;4979361;28;20034;-88
2022/06/11 06:15:51;;;;;;;19.40;11.68;;;;;;;20.89;70.79;100930.25;4997906;28;20050;-88
2022/06/11 06:18:17;;;;;;;21.17;11.90;;;;;;;21.06;70.46;100942.75;4995661;28;20573;-88
2022/06/11 06:20:42;;;;;;;15.30;12.00;;;;;;;21.01;70.20;100929.16;5011874;28;20061;-88
2022/06/11 06:23:08;;;;;;;17.38;11.68;;;;;;;21.06;69.55;100926.97;4979236;28;20038;-88
2022/06/11 06:25:33;;;;;;;15.93;12.23;;;;;;;21.20;69.86;100949.41;4978953;28;20030;-88
2022/06/11 06:27:59;;;;;;;14.95;11.25;;;;;;;21.30;68.87;100960.81;4995383;28;20502;-87
2022/06/11 06:30:24;;;;;;;17.02;12.48;;;;;;;21.40;68.73;100953.78;4994936;28;20030;-88
2022/06/11 06:32:50;;;;;;;11.75;9.25;;;;;;;21.30;66.11;100960.81;4995062;28;20034;-88
2022/06/11 06:35:16;;;;;;;12.32;9.10;;;;;;;21.36;65.87;100955.03;5011166;28;20104;-87
2022/06/11 06:37:41;;;;;;;10.80;8.90;;;;;;;21.36;65.26;100949.75;5011300;28;20034;-88
2022/06/11 06:40:07;;;;;;;11.05;8.85;;;;;;;21.32;65.81;100961.50;4994449;28;20030;-88
2022/06/11 06:42:33;;;;;;;11.88;8.57;;;;;;;21.31;65.06;100956.38;4995089;28;20034;-87
2022/06/11 06:44:58;;;;;;;15.27;8.85;;;;;;;21.23;65.63;100954.41;4978765;28;20626;-88
2022/06/11 06:47:24;;;;;;;10.75;8.73;;;;;;;21.34;66.42;100972.75;5011206;28;20057;-89
2022/06/11 06:49:49;;;;;;;17.00;9.38;;;;;;;21.34;66.48;100971.94;5012152;28;20033;-88
2022/06/11 06:52:15;;;;;;;12.85;9.40;;;;;;;21.36;66.78;100968.19;5010879;28;20137;-88
2022/06/11 06:54:40;;;;;;;16.17;8.70;;;;;;;21.42;65.77;100979.94;5010460;28;20064;-87
2022/06/11 06:57:06;;;;;;;12.25;8.45;;;;;;;21.30;65.16;100942.41;5011078;28;20030;-87
2022/06/11 06:59:32;;;;;;;12.55;8.68;;;;;;;21.50;64.96;100966.13;5010805;28;20025;-88
2022/06/11 07:01:58;;;;;;;11.38;9.10;;;;;;;21.57;65.27;100965.44;4978697;28;20033;-88
2022/06/11 07:04:23;;;;;;;11.30;8.93;;;;;;;21.37;65.23;100925.09;4994336;28;20117;-87
2022/06/11 07:06:49;;;;;;;10.55;8.88;;;;;;;21.66;64.69;100966.41;5027282;28;20034;-87
2022/06/11 07:09:14;;;;;;;13.98;10.15;;;;;;;21.66;65.38;100961.13;5010634;28;20506;-88
2022/06/11 07:11:40;;;;;;;12.10;9.27;;;;;;;21.60;65.68;100954.63;4994318;28;20092;-87
2022/06/11 07:14:05;;;;;;;11.50;9.18;;;;;;;21.67;64.49;100957.53;5011982;28;20026;-88
2022/06/11 07:16:34;;;;;;;12.60;9.18;;;;;;;21.72;63.64;100971.94;4994010;28;20061;-87
2022/06/11 07:19:04;;;;;;;10.15;8.05;;;;;;;21.73;63.36;100978.88;4978279;28;20037;-88
2022/06/11 07:21:38;;;;;;;13.25;8.27;;;;;;;21.76;63.54;100975.13;5010652;28;20022;-87
2022/06/11 07:24:24;;;;;;;11.40;8.50;;;;;;;21.83;63.66;100973.63;4994221;28;20060;-88
2022/06/11 07:26:52;;;;;;;12.63;8.90;;;;;;;21.88;63.70;100974.03;5010451;28;20022;-88
2022/06/11 07:29:23;;;;;;;13.70;8.55;;;;;;;21.85;63.50;100971.69;4994155;28;20034;-88
2022/06/11 07:31:49;;;;;;;10.13;8.35;;;;;;;21.92;63.41;100979.81;4994360;28;20160;-87
2022/06/11 07:34:14;;;;;;;10.20;8.40;;;;;;;21.93;63.28;100984.97;4994252;28;20466;-87
2022/06/11 07:36:40;;;;;;;12.05;8.60;;;;;;;21.76;63.46;100944.38;4993819;28;20041;-88
2022/06/11 07:39:06;;;;;;;9.65;8.65;;;;;;;21.93;63.29;100978.88;5010101;28;20101;-88
2022/06/11 07:41:31;;;;;;;12.55;9.07;;;;;;;21.92;63.07;100990.38;4977682;28;20032;-88
2022/06/11 07:43:57;;;;;;;12.70;8.73;;;;;;;21.95;62.66;100984.84;5009951;28;20033;-87
2022/06/11 07:46:22;;;;;;;13.68;8.18;;;;;;;22.01;62.98;100990.34;4993972;28;20042;-87
2022/06/11 07:48:48;;;;;;;13.38;9.00;;;;;;;22.07;62.42;101001.34;5010093;28;20040;-87
2022/06/11 07:51:18;;;;;;;10.70;8.40;;;;;;;22.07;62.80;100996.09;5009993;28;20029;-87
2022/06/11 07:53:47;;;;;;;12.85;8.55;;;;;;;22.16;63.08;101000.50;5009880;28;20034;-86
2022/06/11 07:56:12;;;;;;;11.88;8.25;;;;;;;22.09;62.66;100996.78;4994570;28;20029;-87
2022/06/11 07:58:38;;;;;;;11.18;8.90;;;;;;;22.09;63.59;101002.88;4993616;28;20038;-87
2022/06/11 08:01:05;;;;;;;13.95;8.68;;;;;;;22.15;63.35;100998.84;5010203;28;20053;-87
2022/06/11 08:03:32;;;;;;;10.82;8.93;;;;;;;22.19;63.33;101005.50;4993917;28;20127;-87
2022/06/11 08:05:58;;;;;;;15.50;9.20;;;;;;;22.10;64.01;101001.91;4993607;28;20418;-87
2022/06/11 08:08:24;;;;;;;15.35;9.18;;;;;;;22.15;63.55;101010.22;5010068;28;20041;-87
2022/06/11 08:10:50;;;;;;;11.55;8.50;;;;;;;22.07;63.49;100991.66;4993798;28;20472;-87
2022/06/11 08:13:16;;;;;;;11.40;8.98;;;;;;;22.25;63.44;101010.22;5010022;28;20034;-86
2022/06/11 08:15:43;;;;;;;11.80;8.40;;;;;;;22.21;63.44;101008.81;4993579;28;20061;-87
2022/06/11 08:18:09;;;;;;;10.40;8.38;;;;;;;22.21;63.13;101014.91;5026059;28;20051;-86
2022/06/11 08:20:35;;;;;;;11.10;8.75;;;;;;;22.12;63.85;100988.56;4977011;28;20125;-87
2022/06/11 08:23:02;;;;;;;11.80;8.73;;;;;;;22.14;63.10;101018.28;4993065;28;20037;-87
2022/06/11 08:25:27;;;;;;;11.80;8.68;;;;;;;22.10;63.28;101016.88;5010935;28;20339;-87
2022/06/11 08:27:54;;;;;;;12.88;8.80;;;;;;;22.05;63.24;101020.75;4993438;28;20080;-87
2022/06/11 08:30:21;;;;;;;13.63;9.02;;;;;;;22.08;63.70;101017.03;4993926;28;20038;-87
2022/06/11 08:32:46;;;;;;;12.95;8.95;;;;;;;22.04;64.08;101013.81;4977490;28;20113;-87
2022/06/11 08:35:12;;;;;;;11.43;9.02;;;;;;;22.07;64.15;101009.25;4992922;28;20029;-86
2022/06/11 08:37:38;;;;;;;12.52;9.45;;;;;;;22.11;64.30;101019.38;4993063;28;20562;-87
2022/06/11 08:40:05;;;;;;;13.27;9.60;;;;;;;21.91;65.25;100988.72;4977036;28;20049;-86
2022/06/11 08:42:35;;;;;;;14.23;9.82;;;;;;;22.01;67.16;101021.97;4993061;28;20495;-87
2022/06/11 08:45:33;;;;;;;11.90;10.70;;;;;;;21.96;67.87;101026.84;4993490;28;20065;-87
2022/06/11 08:48:00;;;;;;;14.23;10.32;;;;;;;21.80;68.18;101016.00;4992488;28;20038;-88
2022/06/11 08:50:37;;;;;;;13.43;10.48;;;;;;;21.67;68.95;101024.19;5009592;28;20022;-88
2022/06/11 08:53:03;;;;;;;16.38;11.35;;;;;;;21.70;70.24;101025.72;4993185;28;20065;-88
2022/06/11 08:55:32;;;;;;;12.85;10.68;;;;;;;21.53;69.96;101029.00;4997056;28;20037;-88
2022/06/11 08:58:03;;;;;;;14.48;12.30;;;;;;;21.41;71.38;101034.38;4997209;28;20022;-87
2022/06/11 09:00:52;;;;;;;13.43;11.85;;;;;;;21.27;70.96;101028.69;4997398;28;20495;-88
2022/06/11 09:03:46;;;;;;;18.27;13.20;;;;;;;21.12;72.23;101009.75;5012590;28;20049;-87
2022/06/11 09:06:14;;;;;;;12.88;11.40;;;;;;;21.19;71.78;101040.66;4981687;28;20026;-88
2022/06/11 09:09:19;;;;;;;11.88;10.07;;;;;;;21.15;71.04;101043.72;5013131;28;20029;-88
2022/06/11 09:12:03;;;;;;;12.13;10.52;;;;;;;20.99;71.83;101043.38;5012893;28;20503;-88
2022/06/11 09:14:54;;;;;;;12.00;10.27;;;;;;;20.93;72.13;101036.81;5012945;28;20164;-88
2022/06/11 09:17:36;;;;;;;12.02;9.68;;;;;;;20.83;71.89;101042.03;5013276;28;20514;-88
2022/06/11 09:20:09;;;;;;;10.63;9.35;;;;;;;20.86;71.77;101048.84;4996667;28;20061;-87
2022/06/11 09:22:59;;;;;;;12.13;9.18;;;;;;;20.86;72.34;101044.44;4996925;28;20054;-88
2022/06/11 09:25:43;;;;;;;10.00;7.82;;;;;;;20.80;71.45;101052.81;5014471;28;20028;-87
2022/06/11 09:28:13;;;;;;;10.02;7.55;;;;;;;20.61;71.83;101052.72;5014091;28;20033;-88
2022/06/11 09:30:45;;;;;;;8.60;7.70;;;;;;;20.50;72.27;101048.38;4996470;28;20108;-87
2022/06/11 09:33:20;;;;;;;9.52;7.72;;;;;;;20.42;72.18;101052.56;4980766;28;20057;-87
2022/06/11 09:36:03;;;;;;;8.88;7.38;;;;;;;20.32;72.92;101036.72;4996783;28;20030;-87
2022/06/11 09:38:41;;;;;;;9.18;7.60;;;;;;;20.44;73.55;101053.28;5013084;28;20037;-88
2022/06/11 09:41:36;;;;;;;11.25;7.38;;;;;;;20.52;73.20;101058.75;4997068;28;20030;-88
2022/06/11 09:44:35;;;;;;;10.13;7.22;;;;;;;20.57;73.41;101062.66;4981238;28;20124;-87
2022/06/11 09:47:13;;;;;;;9.15;7.15;;;;;;;20.57;73.06;101057.41;5012602;28;20022;-88
2022/06/11 09:49:50;;;;;;;8.50;7.32;;;;;;;20.53;74.01;101049.91;5012461;28;20085;-87
2022/06/11 09:52:24;;;;;;;10.65;7.60;;;;;;;20.65;72.41;101061.16;5013330;28;20034;-88
2022/06/11 09:54:54;;;;;;;18.75;8.90;;;;;;;20.73;73.12;101051.69;4995944;28;20062;-88
2022/06/11 09:57:44;;;;;;;8.93;7.88;;;;;;;20.73;72.01;101045.59;5012271;28;20034;-88
2022/06/11 10:00:16;;;;;;;11.68;8.40;;;;;;;20.73;72.68;101042.94;4998002;28;20030;-87
2022/06/11 10:05:45;;;;;;;11.07;8.10;;;;;;;20.82;71.80;101050.88;5012817;28;20044;-88
2022/06/11 10:08:48;;;;;;;14.93;8.50;;;;;;;20.95;72.09;101052.50;5011792;28;20503;-87
2022/06/11 10:11:24;;;;;;;11.98;8.63;;;;;;;20.92;72.38;101036.00;4995635;28;20121;-87
2022/06/11 10:14:28;;;;;;;11.20;8.60;;;;;;;20.97;72.21;101046.13;4996073;28;20515;-87
2022/06/11 10:17:01;;;;;;;13.20;8.93;;;;;;;20.91;72.17;101029.06;5011481;28;20065;-88
2022/06/11 10:19:42;;;;;;;10.20;8.35;;;;;;;21.02;71.80;101056.25;4996438;28;20026;-88
2022/06/11 10:22:21;;;;;;;11.98;9.15;;;;;;;20.99;72.22;101038.09;5012820;28;20497;-87
2022/06/11 10:25:19;;;;;;;10.45;8.77;;;;;;;21.07;71.87;101043.53;4995921;28;20395;-88
2022/06/11 10:28:13;;;;;;;12.43;9.35;;;;;;;21.18;72.36;101046.06;4995316;28;20044;-88
2022/06/11 10:30:39;;;;;;;14.20;9.38;;;;;;;21.25;72.14;101041.94;5003762;28;20129;-87
2022/06/11 10:33:24;;;;;;;10.55;8.80;;;;;;;21.22;71.54;101031.66;5012565;28;20109;-87
2022/06/11 10:36:04;;;;;;;12.63;9.30;;;;;;;21.36;71.44;101039.25;5011830;28;20030;-87
2022/06/11 10:38:58;;;;;;;11.50;8.48;;;;;;;21.51;70.56;101046.75;4996656;28;20033;-87
2022/06/11 10:41:24;;;;;;;10.63;9.07;;;;;;;21.46;70.37;101040.09;5001817;28;20121;-88
2022/06/11 10:44:01;;;;;;;11.63;9.48;;;;;;;21.56;70.13;101044.56;5012722;28;20060;-87
2022/06/11 10:46:26;;;;;;;14.57;9.73;;;;;;;21.68;70.95;101043.44;5010836;28;20080;-87
2022/06/11 10:48:52;;;;;;;10.77;8.52;;;;;;;21.74;69.94;101037.66;4994839;28;20454;-87
2022/06/11 10:51:24;;;;;;;12.02;8.82;;;;;;;21.81;69.20;101040.53;4995165;28;20527;-87
2022/06/11 10:53:58;;;;;;;11.48;9.07;;;;;;;21.93;69.17;101036.84;4995152;28;20033;-87
2022/06/11 10:56:51;;;;;;;13.05;9.07;;;;;;;22.03;68.05;101037.66;4995281;28;20034;-87
2022/06/11 10:59:25;;;;;;;10.40;8.10;;;;;;;21.75;67.02;101007.72;5008205;28;20153;-87
2022/06/11 11:01:58;;;;;;;10.25;7.65;;;;;;;21.96;66.78;101042.66;5010718;28;20067;-87
2022/06/11 11:04:26;;;;;;;9.30;7.93;;;;;;;22.04;66.75;101037.53;4994990;28;20026;-87
2022/06/11 11:07:21;;;;;;;14.90;7.40;;;;;;;22.21;66.45;101035.16;4994568;28;20498;-87
2022/06/11 11:09:47;;;;;;;10.65;7.78;;;;;;;22.35;64.98;101031.28;5006248;28;20128;-88
2022/06/11 11:12:32;;;;;;;11.45;7.13;;;;;;;22.49;65.26;101015.00;4978397;28;20507;-87
2022/06/11 11:15:12;;;;;;;9.40;8.00;;;;;;;22.86;64.67;101023.81;4995508;28;20637;-87
2022/06/11 11:17:44;;;;;;;9.15;7.65;;;;;;;22.83;63.05;101021.44;4993814;28;20515;-87
2022/06/11 11:20:35;;;;;;;9.00;6.85;;;;;;;22.92;62.55;101027.69;5011041;28;20022;-87
2022/06/11 11:23:17;;;;;;;11.23;7.32;;;;;;;23.01;62.05;101021.53;4980930;28;20029;-87
2022/06/11 11:25:54;;;;;;;9.05;7.35;;;;;;;23.08;62.08;101022.59;4994349;28;20121;-88
2022/06/11 11:28:31;;;;;;;9.27;7.45;;;;;;;23.20;62.62;101002.09;5010722;28;20439;-87
2022/06/11 11:31:07;;;;;;;8.15;7.28;;;;;;;23.34;62.29;101009.53;4994760;28;20022;-88
2022/06/11 11:33:35;;;;;;;9.25;7.32;;;;;;;23.40;60.83;101008.09;4994526;28;20025;-88
2022/06/11 11:36:17;;;;;;;9.15;8.02;;;;;;;23.52;61.01;101006.94;4994059;28;20487;-87
2022/06/11 11:38:42;;;;;;;11.57;8.27;;;;;;;23.52;60.23;101008.75;4995012;28;20034;-88